sensor_id;sensor_type;location;lat;lon;timestamp;pressure;altitude;pressure_sealevel;temperature;humidity
50292;BME280;36190;54.980;73.388;2024-03-08T00:00:59;100625.56;;;-13.99;66.34
50292;BME280;36190;54.980;73.388;2024-03-08T00:03:26;100645.22;;;-13.93;66.39
50292;BME280;36190;54.980;73.388;2024-03-08T00:05:55;100652.00;;;-13.84;66.48
50292;BME280;36190;54.980;73.388;2024-03-08T00:08:23;100654.53;;;-13.75;66.53
50292;BME280;36190;54.980;73.388;2024-03-08T00:10:51;100647.66;;;-13.68;66.46
50292;BME280;36190;54.980;73.388;2024-03-08T00:13:18;100650.25;;;-13.68;66.42
50292;BME280;36190;54.980;73.388;2024-03-08T00:15:47;100648.47;;;-13.61;66.29
50292;BME280;36190;54.980;73.388;2024-03-08T00:18:16;100645.03;;;-13.52;66.27
50292;BME280;36190;54.980;73.388;2024-03-08T00:20:44;100637.28;;;-13.51;66.06
50292;BME280;36190;54.980;73.388;2024-03-08T00:23:12;100650.06;;;-13.43;66.03
50292;BME280;36190;54.980;73.388;2024-03-08T00:25:41;100646.66;;;-13.45;65.79
50292;BME280;36190;54.980;73.388;2024-03-08T00:28:09;100647.53;;;-13.46;65.86
50292;BME280;36190;54.980;73.388;2024-03-08T00:30:39;100641.56;;;-13.48;65.91
50292;BME280;36190;54.980;73.388;2024-03-08T00:33:07;100629.56;;;-13.46;65.97
50292;BME280;36190;54.980;73.388;2024-03-08T00:35:36;100631.19;;;-13.39;65.90
50292;BME280;36190;54.980;73.388;2024-03-08T00:38:04;100628.63;;;-13.36;65.97
50292;BME280;36190;54.980;73.388;2024-03-08T00:40:31;100638.84;;;-13.28;66.15
50292;BME280;36190;54.980;73.388;2024-03-08T00:42:59;100646.50;;;-13.23;66.16
50292;BME280;36190;54.980;73.388;2024-03-08T00:45:29;100641.34;;;-13.20;66.29
50292;BME280;36190;54.980;73.388;2024-03-08T00:47:57;100646.47;;;-13.17;66.38
50292;BME280;36190;54.980;73.388;2024-03-08T00:50:24;100643.00;;;-13.13;66.30
50292;BME280;36190;54.980;73.388;2024-03-08T00:52:54;100639.56;;;-13.12;66.38
50292;BME280;36190;54.980;73.388;2024-03-08T00:55:22;100646.34;;;-13.05;66.44
50292;BME280;36190;54.980;73.388;2024-03-08T00:57:49;100644.66;;;-13.03;66.30
50292;BME280;36190;54.980;73.388;2024-03-08T01:00:18;100639.44;;;-12.96;66.33
50292;BME280;36190;54.980;73.388;2024-03-08T01:02:47;100638.56;;;-12.94;66.37
50292;BME280;36190;54.980;73.388;2024-03-08T01:05:14;100639.44;;;-12.93;66.28
50292;BME280;36190;54.980;73.388;2024-03-08T01:07:42;100648.81;;;-12.89;66.24
50292;BME280;36190;54.980;73.388;2024-03-08T01:10:13;100650.50;;;-12.87;66.28
50292;BME280;36190;54.980;73.388;2024-03-08T01:12:41;100644.53;;;-12.87;66.15
50292;BME280;36190;54.980;73.388;2024-03-08T01:15:10;100661.63;;;-12.81;66.28
50292;BME280;36190;54.980;73.388;2024-03-08T01:17:37;100661.63;;;-12.83;65.92
50292;BME280;36190;54.980;73.388;2024-03-08T01:20:07;100662.53;;;-12.87;66.03
50292;BME280;36190;54.980;73.388;2024-03-08T01:22:36;100661.69;;;-12.92;65.93
50292;BME280;36190;54.980;73.388;2024-03-08T01:25:05;100662.56;;;-12.95;66.07
50292;BME280;36190;54.980;73.388;2024-03-08T01:27:36;100669.47;;;-13.02;66.13
50292;BME280;36190;54.980;73.388;2024-03-08T01:30:03;100673.81;;;-13.13;66.16
50292;BME280;36190;54.980;73.388;2024-03-08T01:32:31;100660.25;;;-13.28;66.38
50292;BME280;36190;54.980;73.388;2024-03-08T01:34:59;100661.06;;;-13.29;66.65
50292;BME280;36190;54.980;73.388;2024-03-08T01:37:27;100661.94;;;-13.30;67.05
50292;BME280;36190;54.980;73.388;2024-03-08T01:39:55;100673.97;;;-13.38;67.10
50292;BME280;36190;54.980;73.388;2024-03-08T01:42:23;100662.97;;;-13.51;67.30
50292;BME280;36190;54.980;73.388;2024-03-08T01:44:52;100677.41;;;-13.39;67.67
50292;BME280;36190;54.980;73.388;2024-03-08T01:47:21;100674.00;;;-13.41;67.73
50292;BME280;36190;54.980;73.388;2024-03-08T01:49:50;100682.56;;;-13.44;67.77
50292;BME280;36190;54.980;73.388;2024-03-08T01:52:18;100680.94;;;-13.49;67.83
50292;BME280;36190;54.980;73.388;2024-03-08T01:54:48;100672.41;;;-13.58;67.82
50292;BME280;36190;54.980;73.388;2024-03-08T01:57:17;100680.16;;;-13.62;68.14
50292;BME280;36190;54.980;73.388;2024-03-08T01:59:44;100686.16;;;-13.68;68.14
50292;BME280;36190;54.980;73.388;2024-03-08T02:02:15;100675.91;;;-13.77;68.14
50292;BME280;36190;54.980;73.388;2024-03-08T02:04:45;100678.50;;;-13.82;68.44
50292;BME280;36190;54.980;73.388;2024-03-08T02:07:13;100679.34;;;-13.78;68.59
50292;BME280;36190;54.980;73.388;2024-03-08T02:09:41;100680.19;;;-13.72;68.62
50292;BME280;36190;54.980;73.388;2024-03-08T02:12:08;100675.00;;;-13.64;68.57
50292;BME280;36190;54.980;73.388;2024-03-08T02:14:36;100679.22;;;-13.54;68.58
50292;BME280;36190;54.980;73.388;2024-03-08T02:17:05;100683.50;;;-13.51;68.41
50292;BME280;36190;54.980;73.388;2024-03-08T02:19:35;100674.94;;;-13.50;68.33
50292;BME280;36190;54.980;73.388;2024-03-08T02:22:05;100674.06;;;-13.47;68.19
50292;BME280;36190;54.980;73.388;2024-03-08T02:24:33;100676.66;;;-13.52;68.15
50292;BME280;36190;54.980;73.388;2024-03-08T02:27:00;100687.78;;;-13.55;68.14
50292;BME280;36190;54.980;73.388;2024-03-08T02:29:28;100683.53;;;-13.56;68.21
50292;BME280;36190;54.980;73.388;2024-03-08T02:31:56;100674.09;;;-13.54;68.03
50292;BME280;36190;54.980;73.388;2024-03-08T02:34:24;100686.09;;;-13.57;68.07
50292;BME280;36190;54.980;73.388;2024-03-08T02:36:51;100680.97;;;-13.56;68.20
50292;BME280;36190;54.980;73.388;2024-03-08T02:39:20;100692.06;;;-13.50;68.11
50292;BME280;36190;54.980;73.388;2024-03-08T02:41:49;100686.91;;;-13.47;68.06
50292;BME280;36190;54.980;73.388;2024-03-08T02:44:16;100693.75;;;-13.46;68.04
50292;BME280;36190;54.980;73.388;2024-03-08T02:46:44;100686.00;;;-13.43;67.93
50292;BME280;36190;54.980;73.388;2024-03-08T02:49:11;100684.25;;;-13.38;67.82
50292;BME280;36190;54.980;73.388;2024-03-08T02:51:39;100685.91;;;-13.31;67.73
50292;BME280;36190;54.980;73.388;2024-03-08T02:54:07;100692.69;;;-13.20;67.78
50292;BME280;36190;54.980;73.388;2024-03-08T02:56:37;100681.53;;;-13.10;67.53
50292;BME280;36190;54.980;73.388;2024-03-08T02:59:05;100689.13;;;-12.98;67.43
50292;BME280;36190;54.980;73.388;2024-03-08T03:01:33;100696.75;;;-12.87;67.16
50292;BME280;36190;54.980;73.388;2024-03-08T03:04:02;100691.53;;;-12.76;66.95
50292;BME280;36190;54.980;73.388;2024-03-08T03:06:30;100699.19;;;-12.66;66.73
50292;BME280;36190;54.980;73.388;2024-03-08T03:08:59;100701.69;;;-12.59;66.61
50292;BME280;36190;54.980;73.388;2024-03-08T03:11:27;100697.34;;;-12.50;66.32
50292;BME280;36190;54.980;73.388;2024-03-08T03:13:56;100693.84;;;-12.46;66.04
50292;BME280;36190;54.980;73.388;2024-03-08T03:16:24;100695.50;;;-12.40;65.75
50292;BME280;36190;54.980;73.388;2024-03-08T03:18:52;100695.50;;;-12.37;65.56
50292;BME280;36190;54.980;73.388;2024-03-08T03:21:19;100698.03;;;-12.36;65.20
50292;BME280;36190;54.980;73.388;2024-03-08T03:23:47;100703.13;;;-12.30;65.28
50292;BME280;36190;54.980;73.388;2024-03-08T03:26:15;100706.53;;;-12.24;65.10
50292;BME280;36190;54.980;73.388;2024-03-08T03:28:43;100703.84;;;-12.13;64.99
50292;BME280;36190;54.980;73.388;2024-03-08T03:31:12;100720.88;;;-12.03;64.86
50292;BME280;36190;54.980;73.388;2024-03-08T03:33:40;100720.78;;;-11.97;64.52
50292;BME280;36190;54.980;73.388;2024-03-08T03:36:08;100718.19;;;-11.95;64.21
50292;BME280;36190;54.980;73.388;2024-03-08T03:38:37;100714.72;;;-11.91;64.01
50292;BME280;36190;54.980;73.388;2024-03-08T03:41:05;100718.94;;;-11.84;63.85
50292;BME280;36190;54.980;73.388;2024-03-08T03:43:36;100723.94;;;-11.73;63.69
50292;BME280;36190;54.980;73.388;2024-03-08T03:46:06;100720.47;;;-11.67;63.38
50292;BME280;36190;54.980;73.388;2024-03-08T03:48:37;100726.38;;;-11.62;63.24
50292;BME280;36190;54.980;73.388;2024-03-08T03:51:05;100730.63;;;-11.56;63.21
50292;BME280;36190;54.980;73.388;2024-03-08T03:53:33;100727.13;;;-11.52;62.80
50292;BME280;36190;54.980;73.388;2024-03-08T03:56:00;100733.16;;;-11.52;62.64
50292;BME280;36190;54.980;73.388;2024-03-08T03:58:28;100732.28;;;-11.52;62.79
50292;BME280;36190;54.980;73.388;2024-03-08T04:00:57;100735.75;;;-11.53;62.54
50292;BME280;36190;54.980;73.388;2024-03-08T04:03:24;100735.75;;;-11.53;62.36
50292;BME280;36190;54.980;73.388;2024-03-08T04:05:54;100736.63;;;-11.54;62.23
50292;BME280;36190;54.980;73.388;2024-03-08T04:08:21;100735.69;;;-11.50;62.21
50292;BME280;36190;54.980;73.388;2024-03-08T04:10:50;100736.50;;;-11.47;62.04
50292;BME280;36190;54.980;73.388;2024-03-08T04:13:17;100729.44;;;-11.30;62.12
50292;BME280;36190;54.980;73.388;2024-03-08T04:15:46;100737.88;;;-11.21;61.86
50292;BME280;36190;54.980;73.388;2024-03-08T04:18:14;100743.03;;;-11.21;61.39
50292;BME280;36190;54.980;73.388;2024-03-08T04:20:42;100744.78;;;-11.23;61.31
50292;BME280;36190;54.980;73.388;2024-03-08T04:23:11;100744.88;;;-11.29;61.21
50292;BME280;36190;54.980;73.388;2024-03-08T04:25:39;100740.66;;;-11.35;61.23
50292;BME280;36190;54.980;73.388;2024-03-08T04:28:08;100745.78;;;-11.31;61.21
50292;BME280;36190;54.980;73.388;2024-03-08T04:30:37;100749.19;;;-11.29;61.13
50292;BME280;36190;54.980;73.388;2024-03-08T04:33:05;100744.03;;;-11.29;61.14
50292;BME280;36190;54.980;73.388;2024-03-08T04:35:34;100743.97;;;-11.23;61.15
50292;BME280;36190;54.980;73.388;2024-03-08T04:38:02;100750.69;;;-11.16;60.98
50292;BME280;36190;54.980;73.388;2024-03-08T04:40:33;100746.28;;;-11.08;61.02
50292;BME280;36190;54.980;73.388;2024-03-08T04:43:00;100754.75;;;-10.96;60.78
50292;BME280;36190;54.980;73.388;2024-03-08T04:45:28;100747.97;;;-11.02;60.56
50292;BME280;36190;54.980;73.388;2024-03-08T04:47:56;100749.66;;;-11.02;60.32
50292;BME280;36190;54.980;73.388;2024-03-08T04:50:23;100752.19;;;-10.99;60.45
50292;BME280;36190;54.980;73.388;2024-03-08T04:52:51;100750.47;;;-10.97;60.30
50292;BME280;36190;54.980;73.388;2024-03-08T04:55:19;100741.84;;;-10.96;60.19
50292;BME280;36190;54.980;73.388;2024-03-08T04:57:48;100748.72;;;-10.95;59.99
50292;BME280;36190;54.980;73.388;2024-03-08T05:00:17;100757.31;;;-10.96;59.99
50292;BME280;36190;54.980;73.388;2024-03-08T05:02:45;100757.25;;;-10.92;60.24
50292;BME280;36190;54.980;73.388;2024-03-08T05:05:12;100763.13;;;-10.82;59.81
50292;BME280;36190;54.980;73.388;2024-03-08T05:07:41;100758.72;;;-10.75;59.64
50292;BME280;36190;54.980;73.388;2024-03-08T05:10:11;100760.34;;;-10.66;59.58
50292;BME280;36190;54.980;73.388;2024-03-08T05:12:41;100756.91;;;-10.68;59.37
50292;BME280;36190;54.980;73.388;2024-03-08T05:15:10;100750.03;;;-10.66;59.34
50292;BME280;36190;54.980;73.388;2024-03-08T05:17:38;100748.25;;;-10.64;59.19
50292;BME280;36190;54.980;73.388;2024-03-08T05:20:08;100753.28;;;-10.55;59.15
50292;BME280;36190;54.980;73.388;2024-03-08T05:22:38;100758.06;;;-10.34;59.25
50292;BME280;36190;54.980;73.388;2024-03-08T05:25:06;100753.38;;;-10.11;59.16
50292;BME280;36190;54.980;73.388;2024-03-08T05:27:35;100753.91;;;-9.91;58.78
50292;BME280;36190;54.980;73.388;2024-03-08T05:30:03;100761.22;;;-9.70;58.46
50292;BME280;36190;54.980;73.388;2024-03-08T05:32:32;100754.81;;;-9.50;58.28
50292;BME280;36190;54.980;73.388;2024-03-08T05:35:00;100756.81;;;-9.20;58.05
50292;BME280;36190;54.980;73.388;2024-03-08T05:37:28;100748.53;;;-8.97;57.74
50292;BME280;36190;54.980;73.388;2024-03-08T05:39:57;100760.91;;;-8.72;57.38
50292;BME280;36190;54.980;73.388;2024-03-08T05:42:24;100751.72;;;-8.49;57.12
50292;BME280;36190;54.980;73.388;2024-03-08T05:44:54;100760.66;;;-8.26;56.80
50292;BME280;36190;54.980;73.388;2024-03-08T05:47:24;100754.84;;;-8.02;56.64
50292;BME280;36190;54.980;73.388;2024-03-08T05:49:53;100751.06;;;-7.88;56.20
50292;BME280;36190;54.980;73.388;2024-03-08T05:52:21;100748.41;;;-7.87;55.91
50292;BME280;36190;54.980;73.388;2024-03-08T05:54:49;100753.00;;;-7.96;56.02
50292;BME280;36190;54.980;73.388;2024-03-08T05:57:16;100750.75;;;-8.10;56.11
50292;BME280;36190;54.980;73.388;2024-03-08T05:59:44;100757.88;;;-8.19;56.24
50292;BME280;36190;54.980;73.388;2024-03-08T06:02:11;100742.63;;;-8.30;56.56
50292;BME280;36190;54.980;73.388;2024-03-08T06:04:42;100740.19;;;-8.36;56.63
50292;BME280;36190;54.980;73.388;2024-03-08T06:07:11;100753.78;;;-8.27;56.95
50292;BME280;36190;54.980;73.388;2024-03-08T06:09:40;100749.44;;;-8.27;56.85
50292;BME280;36190;54.980;73.388;2024-03-08T06:12:11;100748.66;;;-8.31;56.71
50292;BME280;36190;54.980;73.388;2024-03-08T06:14:40;100747.09;;;-8.36;56.92
50292;BME280;36190;54.980;73.388;2024-03-08T06:17:07;100741.00;;;-8.34;56.92
50292;BME280;36190;54.980;73.388;2024-03-08T06:19:37;100747.81;;;-8.30;57.01
50292;BME280;36190;54.980;73.388;2024-03-08T06:22:04;100746.84;;;-8.25;56.99
50292;BME280;36190;54.980;73.388;2024-03-08T06:24:34;100746.75;;;-8.22;57.06
50292;BME280;36190;54.980;73.388;2024-03-08T06:27:03;100721.94;;;-8.31;57.15
50292;BME280;36190;54.980;73.388;2024-03-08T06:29:31;100738.03;;;-8.18;57.04
50292;BME280;36190;54.980;73.388;2024-03-08T06:31:58;100740.59;;;-8.17;57.15
50292;BME280;36190;54.980;73.388;2024-03-08T06:34:26;100748.22;;;-8.12;57.12
50292;BME280;36190;54.980;73.388;2024-03-08T06:36:54;100750.16;;;-8.20;57.03
50292;BME280;36190;54.980;73.388;2024-03-08T06:39:26;100753.78;;;-8.27;57.11
50292;BME280;36190;54.980;73.388;2024-03-08T06:41:57;100742.69;;;-8.33;57.21
50292;BME280;36190;54.980;73.388;2024-03-08T06:44:25;100748.66;;;-8.31;57.33
50292;BME280;36190;54.980;73.388;2024-03-08T06:46:53;100756.44;;;-8.31;57.33
50292;BME280;36190;54.980;73.388;2024-03-08T06:49:21;100756.44;;;-8.31;57.31
50292;BME280;36190;54.980;73.388;2024-03-08T06:51:48;100750.53;;;-8.36;57.38
50292;BME280;36190;54.980;73.388;2024-03-08T06:54:16;100751.44;;;-8.37;57.68
50292;BME280;36190;54.980;73.388;2024-03-08T06:56:43;100758.19;;;-8.31;57.54
50292;BME280;36190;54.980;73.388;2024-03-08T06:59:13;100767.63;;;-8.29;57.74
50292;BME280;36190;54.980;73.388;2024-03-08T07:01:40;100745.03;;;-8.23;57.90
50292;BME280;36190;54.980;73.388;2024-03-08T07:04:08;100739.81;;;-8.20;57.90
50292;BME280;36190;54.980;73.388;2024-03-08T07:06:37;100748.28;;;-8.15;58.07
50292;BME280;36190;54.980;73.388;2024-03-08T07:09:06;100752.41;;;-8.08;58.15
50292;BME280;36190;54.980;73.388;2024-03-08T07:11:34;100745.41;;;-8.04;58.18
50292;BME280;36190;54.980;73.388;2024-03-08T07:14:02;100758.25;;;-7.99;58.15
50292;BME280;36190;54.980;73.388;2024-03-08T07:16:33;100746.09;;;-7.97;58.21
50292;BME280;36190;54.980;73.388;2024-03-08T07:19:01;100733.13;;;-7.96;58.53
50292;BME280;36190;54.980;73.388;2024-03-08T07:21:29;100738.06;;;-7.87;58.34
50292;BME280;36190;54.980;73.388;2024-03-08T07:23:56;100737.00;;;-7.79;58.42
50292;BME280;36190;54.980;73.388;2024-03-08T07:26:44;100734.22;;;-7.71;58.13
50292;BME280;36190;54.980;73.388;2024-03-08T07:29:15;100736.88;;;-7.75;58.02
50292;BME280;36190;54.980;73.388;2024-03-08T07:31:44;100731.78;;;-7.78;58.33
50292;BME280;36190;54.980;73.388;2024-03-08T07:34:21;100738.56;;;-7.74;58.38
50292;BME280;36190;54.980;73.388;2024-03-08T07:36:49;100737.44;;;-7.63;58.24
50292;BME280;36190;54.980;73.388;2024-03-08T07:39:17;100739.03;;;-7.59;58.21
50292;BME280;36190;54.980;73.388;2024-03-08T07:41:44;100733.72;;;-7.54;58.21
50292;BME280;36190;54.980;73.388;2024-03-08T07:44:14;100721.94;;;-7.35;58.19
50292;BME280;36190;54.980;73.388;2024-03-08T07:46:41;100723.03;;;-7.13;58.08
50292;BME280;36190;54.980;73.388;2024-03-08T07:49:10;100729.34;;;-6.94;57.93
50292;BME280;36190;54.980;73.388;2024-03-08T07:51:38;100732.25;;;-6.76;57.54
50292;BME280;36190;54.980;73.388;2024-03-08T07:54:06;100738.66;;;-6.59;57.38
50292;BME280;36190;54.980;73.388;2024-03-08T07:56:35;100721.84;;;-6.47;57.55
50292;BME280;36190;54.980;73.388;2024-03-08T07:59:03;100730.19;;;-6.38;57.21
50292;BME280;36190;54.980;73.388;2024-03-08T08:01:31;100736.59;;;-6.23;57.04
50292;BME280;36190;54.980;73.388;2024-03-08T08:03:59;100731.84;;;-6.10;56.73
50292;BME280;36190;54.980;73.388;2024-03-08T08:06:29;100729.78;;;-6.01;56.29
50292;BME280;36190;54.980;73.388;2024-03-08T08:08:59;100716.50;;;-5.92;55.97
50292;BME280;36190;54.980;73.388;2024-03-08T08:11:27;100724.47;;;-5.73;56.05
50292;BME280;36190;54.980;73.388;2024-03-08T08:13:56;100724.59;;;-5.52;55.65
50292;BME280;36190;54.980;73.388;2024-03-08T08:16:25;100717.31;;;-5.42;55.15
50292;BME280;36190;54.980;73.388;2024-03-08T08:18:53;100712.84;;;-5.39;55.28
50292;BME280;36190;54.980;73.388;2024-03-08T08:21:21;100720.56;;;-5.37;55.06
50292;BME280;36190;54.980;73.388;2024-03-08T08:23:50;100722.25;;;-5.36;54.87
50292;BME280;36190;54.980;73.388;2024-03-08T08:26:18;100722.03;;;-5.30;54.82
50292;BME280;36190;54.980;73.388;2024-03-08T08:28:47;100729.63;;;-5.23;54.72
50292;BME280;36190;54.980;73.388;2024-03-08T08:31:15;100728.00;;;-5.04;54.63
50292;BME280;36190;54.980;73.388;2024-03-08T08:33:42;100727.31;;;-4.85;54.44
50292;BME280;36190;54.980;73.388;2024-03-08T08:36:10;100723.28;;;-4.72;54.13
50292;BME280;36190;54.980;73.388;2024-03-08T08:38:38;100723.41;;;-4.75;53.84
50292;BME280;36190;54.980;73.388;2024-03-08T08:41:07;100726.69;;;-4.70;53.96
50292;BME280;36190;54.980;73.388;2024-03-08T08:43:35;100736.34;;;-4.51;53.95
50292;BME280;36190;54.980;73.388;2024-03-08T08:46:03;100753.78;;;-4.31;53.46
50292;BME280;36190;54.980;73.388;2024-03-08T08:48:30;100734.09;;;-4.17;53.08
50292;BME280;36190;54.980;73.388;2024-03-08T08:50:58;100746.41;;;-4.00;52.77
50292;BME280;36190;54.980;73.388;2024-03-08T08:53:26;100752.72;;;-3.85;52.48
50292;BME280;36190;54.980;73.388;2024-03-08T08:55:54;100745.56;;;-3.80;52.07
50292;BME280;36190;54.980;73.388;2024-03-08T08:58:23;100741.31;;;-3.62;51.89
50292;BME280;36190;54.980;73.388;2024-03-08T09:03:38;100744.34;;;-3.33;51.59
50292;BME280;36190;54.980;73.388;2024-03-08T09:06:07;100751.19;;;-3.30;51.08
50292;BME280;36190;54.980;73.388;2024-03-08T09:08:36;100743.09;;;-3.43;50.95
50292;BME280;36190;54.980;73.388;2024-03-08T09:11:04;100740.75;;;-3.49;51.04
50292;BME280;36190;54.980;73.388;2024-03-08T09:13:33;100739.50;;;-3.40;51.14
50292;BME280;36190;54.980;73.388;2024-03-08T09:16:02;100740.28;;;-3.19;50.93
50292;BME280;36190;54.980;73.388;2024-03-08T09:18:31;100735.69;;;-3.14;50.65
50292;BME280;36190;54.980;73.388;2024-03-08T09:20:59;100728.63;;;-3.12;50.66
50292;BME280;36190;54.980;73.388;2024-03-08T09:23:27;100733.97;;;-3.15;50.17
50292;BME280;36190;54.980;73.388;2024-03-08T09:25:56;100730.88;;;-3.23;49.90
50292;BME280;36190;54.980;73.388;2024-03-08T09:28:24;100743.94;;;-3.23;50.12
50292;BME280;36190;54.980;73.388;2024-03-08T09:30:54;100738.81;;;-3.06;50.01
50292;BME280;36190;54.980;73.388;2024-03-08T09:33:22;100734.94;;;-2.79;49.91
50292;BME280;36190;54.980;73.388;2024-03-08T09:35:50;100734.91;;;-2.60;49.24
50292;BME280;36190;54.980;73.388;2024-03-08T09:38:19;100740.00;;;-2.39;48.84
50292;BME280;36190;54.980;73.388;2024-03-08T09:40:46;100738.56;;;-2.27;48.50
50292;BME280;36190;54.980;73.388;2024-03-08T09:43:14;100741.28;;;-2.13;48.19
50292;BME280;36190;54.980;73.388;2024-03-08T09:45:45;100749.06;;;-2.11;47.87
50292;BME280;36190;54.980;73.388;2024-03-08T09:48:17;100757.69;;;-2.09;47.81
50292;BME280;36190;54.980;73.388;2024-03-08T09:50:46;100751.69;;;-2.11;47.65
50292;BME280;36190;54.980;73.388;2024-03-08T09:53:15;100741.09;;;-2.08;47.55
50292;BME280;36190;54.980;73.388;2024-03-08T09:55:43;100742.44;;;-2.01;47.48
50292;BME280;36190;54.980;73.388;2024-03-08T09:58:13;100737.59;;;-1.91;47.25
50292;BME280;36190;54.980;73.388;2024-03-08T10:01:02;100733.06;;;-1.87;46.97
50292;BME280;36190;54.980;73.388;2024-03-08T10:03:32;100732.81;;;-1.83;46.77
50292;BME280;36190;54.980;73.388;2024-03-08T10:06:02;100733.84;;;-2.03;46.66
50292;BME280;36190;54.980;73.388;2024-03-08T10:08:32;100737.38;;;-2.04;46.93
50292;BME280;36190;54.980;73.388;2024-03-08T10:11:02;100743.00;;;-1.94;46.77
50292;BME280;36190;54.980;73.388;2024-03-08T10:13:30;100735.06;;;-1.92;46.62
50292;BME280;36190;54.980;73.388;2024-03-08T10:15:58;100731.38;;;-1.88;46.84
50292;BME280;36190;54.980;73.388;2024-03-08T10:18:29;100739.50;;;-1.77;46.58
50292;BME280;36190;54.980;73.388;2024-03-08T10:21:05;100737.25;;;-1.67;46.29
50292;BME280;36190;54.980;73.388;2024-03-08T10:23:37;100739.63;;;-1.62;46.16
50292;BME280;36190;54.980;73.388;2024-03-08T10:26:10;100735.75;;;-1.55;46.35
50292;BME280;36190;54.980;73.388;2024-03-08T10:28:41;100733.50;;;-1.79;46.32
50292;BME280;36190;54.980;73.388;2024-03-08T10:31:11;100733.69;;;-1.82;45.89
50292;BME280;36190;54.980;73.388;2024-03-08T10:33:41;100728.34;;;-1.81;45.74
50292;BME280;36190;54.980;73.388;2024-03-08T10:36:13;100725.34;;;-1.73;45.57
50292;BME280;36190;54.980;73.388;2024-03-08T10:38:42;100731.00;;;-1.64;45.94
50292;BME280;36190;54.980;73.388;2024-03-08T10:41:15;100726.59;;;-1.64;45.76
50292;BME280;36190;54.980;73.388;2024-03-08T10:44:10;100729.59;;;-1.54;45.51
50292;BME280;36190;54.980;73.388;2024-03-08T10:46:48;100731.47;;;-1.40;45.37
50292;BME280;36190;54.980;73.388;2024-03-08T10:49:25;100735.56;;;-1.34;44.87
50292;BME280;36190;54.980;73.388;2024-03-08T10:51:58;100728.66;;;-1.53;44.90
50292;BME280;36190;54.980;73.388;2024-03-08T10:54:27;100726.41;;;-1.59;45.13
50292;BME280;36190;54.980;73.388;2024-03-08T10:56:57;100730.84;;;-1.61;45.15
50292;BME280;36190;54.980;73.388;2024-03-08T10:59:27;100727.28;;;-1.60;45.05
50292;BME280;36190;54.980;73.388;2024-03-08T11:01:56;100729.19;;;-1.80;44.95
50292;BME280;36190;54.980;73.388;2024-03-08T11:04:24;100742.53;;;-2.02;45.27
50292;BME280;36190;54.980;73.388;2024-03-08T11:07:02;100734.00;;;-2.06;45.43
50292;BME280;36190;54.980;73.388;2024-03-08T11:09:36;100729.69;;;-1.89;45.35
50292;BME280;36190;54.980;73.388;2024-03-08T11:12:25;100741.16;;;-1.58;44.88
50292;BME280;36190;54.980;73.388;2024-03-08T11:15:00;100741.94;;;-1.56;44.65
50292;BME280;36190;54.980;73.388;2024-03-08T11:17:47;100745.97;;;-1.50;43.97
50292;BME280;36190;54.980;73.388;2024-03-08T11:20:16;100742.09;;;-1.59;44.19
50292;BME280;36190;54.980;73.388;2024-03-08T11:22:53;100739.13;;;-1.53;43.94
50292;BME280;36190;54.980;73.388;2024-03-08T11:25:37;100732.47;;;-1.59;43.42
50292;BME280;36190;54.980;73.388;2024-03-08T11:28:10;100733.69;;;-1.82;43.82
50292;BME280;36190;54.980;73.388;2024-03-08T11:30:43;100734.69;;;-2.02;43.68
50292;BME280;36190;54.980;73.388;2024-03-08T11:33:13;100734.16;;;-2.09;43.71
50292;BME280;36190;54.980;73.388;2024-03-08T11:35:42;100748.16;;;-2.10;44.17
50292;BME280;36190;54.980;73.388;2024-03-08T11:38:14;100731.69;;;-2.12;44.07
50292;BME280;36190;54.980;73.388;2024-03-08T11:40:42;100731.41;;;-2.24;43.98
50292;BME280;36190;54.980;73.388;2024-03-08T11:43:10;100728.91;;;-2.44;43.98
50292;BME280;36190;54.980;73.388;2024-03-08T11:45:41;100735.94;;;-2.82;44.60
50292;BME280;36190;54.980;73.388;2024-03-08T11:48:08;100736.03;;;-3.02;44.95
50292;BME280;36190;54.980;73.388;2024-03-08T11:50:38;100730.75;;;-3.20;45.25
50292;BME280;36190;54.980;73.388;2024-03-08T11:53:09;100737.81;;;-3.41;45.57
50292;BME280;36190;54.980;73.388;2024-03-08T11:55:40;100730.47;;;-3.52;45.91
50292;BME280;36190;54.980;73.388;2024-03-08T11:58:08;100734.59;;;-3.48;45.87
50292;BME280;36190;54.980;73.388;2024-03-08T12:00:37;100745.53;;;-3.40;45.76
50292;BME280;36190;54.980;73.388;2024-03-08T12:03:06;100740.34;;;-3.59;45.76
50292;BME280;36190;54.980;73.388;2024-03-08T12:05:35;100743.16;;;-4.05;46.18
50292;BME280;36190;54.980;73.388;2024-03-08T12:08:05;100732.13;;;-4.76;46.84
50292;BME280;36190;54.980;73.388;2024-03-08T12:10:33;100731.44;;;-5.49;47.86
50292;BME280;36190;54.980;73.388;2024-03-08T12:13:03;100738.41;;;-6.25;49.01
50292;BME280;36190;54.980;73.388;2024-03-08T12:15:39;100725.78;;;-6.89;50.24
50292;BME280;36190;54.980;73.388;2024-03-08T12:18:07;100732.22;;;-7.32;51.21
50292;BME280;36190;54.980;73.388;2024-03-08T12:20:36;100726.25;;;-7.65;52.05
50292;BME280;36190;54.980;73.388;2024-03-08T12:23:05;100727.78;;;-7.90;52.82
50292;BME280;36190;54.980;73.388;2024-03-08T12:25:33;100736.91;;;-8.09;53.36
50292;BME280;36190;54.980;73.388;2024-03-08T12:28:10;100704.84;;;-8.37;54.08
50292;BME280;36190;54.980;73.388;2024-03-08T12:30:46;100731.59;;;-8.38;54.32
50292;BME280;36190;54.980;73.388;2024-03-08T12:33:15;100725.06;;;-8.51;54.43
50292;BME280;36190;54.980;73.388;2024-03-08T12:35:50;100739.03;;;-8.59;54.95
50292;BME280;36190;54.980;73.388;2024-03-08T12:38:21;100721.22;;;-8.71;55.06
50292;BME280;36190;54.980;73.388;2024-03-08T12:40:55;100714.00;;;-8.94;55.38
50292;BME280;36190;54.980;73.388;2024-03-08T12:43:25;100722.09;;;-9.10;55.81
50292;BME280;36190;54.980;73.388;2024-03-08T12:45:54;100717.31;;;-9.27;56.14
50292;BME280;36190;54.980;73.388;2024-03-08T12:48:22;100717.59;;;-9.41;56.58